sensor_id;sensor_type;location;lat;lon;timestamp;temperature;humidity
10314;DHT22;5202;49.138;10.090;2023-07-31T00:00:59;15.20;99.90
10314;DHT22;5202;49.138;10.090;2023-07-31T00:03:29;15.10;99.90
10314;DHT22;5202;49.138;10.090;2023-07-31T00:06:06;15.10;99.90
10314;DHT22;5202;49.138;10.090;2023-07-31T00:08:34;15.10;99.90
10314;DHT22;5202;49.138;10.090;2023-07-31T00:11:03;15.00;99.90
10314;DHT22;5202;49.138;10.090;2023-07-31T00:13:31;15.10;99.90
10314;DHT22;5202;49.138;10.090;2023-07-31T00:16:00;15.00;99.90
10314;DHT22;5202;49.138;10.090;2023-07-31T00:18:29;15.00;99.90
10314;DHT22;5202;49.138;10.090;2023-07-31T00:20:58;15.00;99.90
10314;DHT22;5202;49.138;10.090;2023-07-31T00:23:26;14.90;99.90
10314;DHT22;5202;49.138;10.090;2023-07-31T00:25:55;14.90;99.90
10314;DHT22;5202;49.138;10.090;2023-07-31T00:28:23;14.90;99.90
10314;DHT22;5202;49.138;10.090;2023-07-31T00:30:51;14.80;99.90
10314;DHT22;5202;49.138;10.090;2023-07-31T00:33:20;14.90;99.90
10314;DHT22;5202;49.138;10.090;2023-07-31T00:35:50;14.90;99.90
10314;DHT22;5202;49.138;10.090;2023-07-31T00:38:18;14.90;99.90
10314;DHT22;5202;49.138;10.090;2023-07-31T00:40:47;14.90;99.90
10314;DHT22;5202;49.138;10.090;2023-07-31T00:43:15;14.90;99.90
10314;DHT22;5202;49.138;10.090;2023-07-31T00:45:44;14.90;99.90
10314;DHT22;5202;49.138;10.090;2023-07-31T00:48:12;14.80;99.90
10314;DHT22;5202;49.138;10.090;2023-07-31T00:50:41;14.80;99.90
10314;DHT22;5202;49.138;10.090;2023-07-31T00:53:11;14.90;99.90
10314;DHT22;5202;49.138;10.090;2023-07-31T00:55:39;14.80;99.90
10314;DHT22;5202;49.138;10.090;2023-07-31T00:58:08;14.80;99.90
10314;DHT22;5202;49.138;10.090;2023-07-31T01:00:38;14.90;99.90
10314;DHT22;5202;49.138;10.090;2023-07-31T01:03:07;14.90;99.90
10314;DHT22;5202;49.138;10.090;2023-07-31T01:05:42;14.80;99.90
10314;DHT22;5202;49.138;10.090;2023-07-31T01:08:22;14.80;99.90
10314;DHT22;5202;49.138;10.090;2023-07-31T01:10:57;14.90;99.90
10314;DHT22;5202;49.138;10.090;2023-07-31T01:13:28;14.90;99.90
10314;DHT22;5202;49.138;10.090;2023-07-31T01:15:57;14.80;99.90
10314;DHT22;5202;49.138;10.090;2023-07-31T01:18:26;14.80;99.90
10314;DHT22;5202;49.138;10.090;2023-07-31T01:21:00;14.80;99.90
10314;DHT22;5202;49.138;10.090;2023-07-31T01:23:56;14.80;99.90
10314;DHT22;5202;49.138;10.090;2023-07-31T01:26:39;14.80;99.90
10314;DHT22;5202;49.138;10.090;2023-07-31T01:29:12;14.80;99.90
10314;DHT22;5202;49.138;10.090;2023-07-31T01:31:48;14.80;99.90
10314;DHT22;5202;49.138;10.090;2023-07-31T01:34:18;14.70;99.90
10314;DHT22;5202;49.138;10.090;2023-07-31T01:36:47;14.70;99.90
10314;DHT22;5202;49.138;10.090;2023-07-31T01:39:16;14.70;99.90
10314;DHT22;5202;49.138;10.090;2023-07-31T01:41:45;14.70;99.90
10314;DHT22;5202;49.138;10.090;2023-07-31T01:44:14;14.80;99.90
10314;DHT22;5202;49.138;10.090;2023-07-31T01:46:42;14.70;99.90
10314;DHT22;5202;49.138;10.090;2023-07-31T01:49:11;14.70;99.90
10314;DHT22;5202;49.138;10.090;2023-07-31T01:51:39;14.70;99.90
10314;DHT22;5202;49.138;10.090;2023-07-31T01:54:08;14.70;99.90
10314;DHT22;5202;49.138;10.090;2023-07-31T01:56:36;14.70;99.90
10314;DHT22;5202;49.138;10.090;2023-07-31T01:59:07;14.70;99.90
10314;DHT22;5202;49.138;10.090;2023-07-31T02:02:00;14.60;99.90
10314;DHT22;5202;49.138;10.090;2023-07-31T02:04:36;14.60;99.90
10314;DHT22;5202;49.138;10.090;2023-07-31T02:07:11;14.60;99.90
10314;DHT22;5202;49.138;10.090;2023-07-31T02:09:40;14.60;99.90
10314;DHT22;5202;49.138;10.090;2023-07-31T02:12:08;14.50;99.90
10314;DHT22;5202;49.138;10.090;2023-07-31T02:14:39;14.50;99.90
10314;DHT22;5202;49.138;10.090;2023-07-31T02:17:07;14.50;99.90
10314;DHT22;5202;49.138;10.090;2023-07-31T02:19:36;14.50;99.90
10314;DHT22;5202;49.138;10.090;2023-07-31T02:22:05;14.50;99.90
10314;DHT22;5202;49.138;10.090;2023-07-31T02:24:33;14.40;99.90
10314;DHT22;5202;49.138;10.090;2023-07-31T02:27:05;14.50;99.90
10314;DHT22;5202;49.138;10.090;2023-07-31T02:29:33;14.50;99.90
10314;DHT22;5202;49.138;10.090;2023-07-31T02:32:04;14.50;99.90
10314;DHT22;5202;49.138;10.090;2023-07-31T02:34:32;14.50;99.90
10314;DHT22;5202;49.138;10.090;2023-07-31T02:37:01;14.50;99.90
10314;DHT22;5202;49.138;10.090;2023-07-31T02:39:29;14.50;99.90
10314;DHT22;5202;49.138;10.090;2023-07-31T02:41:58;14.40;99.90
10314;DHT22;5202;49.138;10.090;2023-07-31T02:44:27;14.40;99.90
10314;DHT22;5202;49.138;10.090;2023-07-31T02:46:56;14.40;99.90
10314;DHT22;5202;49.138;10.090;2023-07-31T02:49:26;14.40;99.90
10314;DHT22;5202;49.138;10.090;2023-07-31T02:51:54;14.40;99.90
10314;DHT22;5202;49.138;10.090;2023-07-31T02:54:22;14.40;99.90
10314;DHT22;5202;49.138;10.090;2023-07-31T02:56:51;14.40;99.90
10314;DHT22;5202;49.138;10.090;2023-07-31T02:59:21;14.40;99.90
10314;DHT22;5202;49.138;10.090;2023-07-31T03:01:49;14.40;99.90
10314;DHT22;5202;49.138;10.090;2023-07-31T03:04:17;14.40;99.90
10314;DHT22;5202;49.138;10.090;2023-07-31T03:06:47;14.40;99.90
10314;DHT22;5202;49.138;10.090;2023-07-31T03:09:16;14.40;99.90
10314;DHT22;5202;49.138;10.090;2023-07-31T03:11:44;14.30;99.90
10314;DHT22;5202;49.138;10.090;2023-07-31T03:14:12;14.40;99.90
10314;DHT22;5202;49.138;10.090;2023-07-31T03:16:44;14.40;99.90
10314;DHT22;5202;49.138;10.090;2023-07-31T03:19:12;14.40;99.90
10314;DHT22;5202;49.138;10.090;2023-07-31T03:21:41;14.40;99.90
10314;DHT22;5202;49.138;10.090;2023-07-31T03:24:10;14.40;99.90
10314;DHT22;5202;49.138;10.090;2023-07-31T03:26:39;14.40;99.90
10314;DHT22;5202;49.138;10.090;2023-07-31T03:29:09;14.40;99.90
10314;DHT22;5202;49.138;10.090;2023-07-31T03:31:37;14.40;99.90
10314;DHT22;5202;49.138;10.090;2023-07-31T03:34:06;14.40;99.90
10314;DHT22;5202;49.138;10.090;2023-07-31T03:36:34;14.40;99.90
10314;DHT22;5202;49.138;10.090;2023-07-31T03:39:03;14.30;99.90
10314;DHT22;5202;49.138;10.090;2023-07-31T03:41:33;14.30;99.90
10314;DHT22;5202;49.138;10.090;2023-07-31T03:44:02;14.30;99.90
10314;DHT22;5202;49.138;10.090;2023-07-31T03:46:30;14.30;99.90
10314;DHT22;5202;49.138;10.090;2023-07-31T03:48:59;14.30;99.90
10314;DHT22;5202;49.138;10.090;2023-07-31T03:51:27;14.30;99.90
10314;DHT22;5202;49.138;10.090;2023-07-31T03:53:56;14.30;99.90
10314;DHT22;5202;49.138;10.090;2023-07-31T03:56:24;14.30;99.90
10314;DHT22;5202;49.138;10.090;2023-07-31T03:58:54;14.30;99.90
10314;DHT22;5202;49.138;10.090;2023-07-31T04:01:22;14.30;99.90
10314;DHT22;5202;49.138;10.090;2023-07-31T04:03:52;14.30;99.90
10314;DHT22;5202;49.138;10.090;2023-07-31T04:06:21;14.30;99.90
10314;DHT22;5202;49.138;10.090;2023-07-31T04:08:50;14.30;99.90
10314;DHT22;5202;49.138;10.090;2023-07-31T04:11:18;14.30;99.90
10314;DHT22;5202;49.138;10.090;2023-07-31T04:13:46;14.30;99.90
10314;DHT22;5202;49.138;10.090;2023-07-31T04:16:16;14.30;99.90
10314;DHT22;5202;49.138;10.090;2023-07-31T04:18:44;14.30;99.90
10314;DHT22;5202;49.138;10.090;2023-07-31T04:21:13;14.30;99.90
10314;DHT22;5202;49.138;10.090;2023-07-31T04:23:41;14.40;99.90
10314;DHT22;5202;49.138;10.090;2023-07-31T04:26:09;14.30;99.90
10314;DHT22;5202;49.138;10.090;2023-07-31T04:28:38;14.30;99.90
10314;DHT22;5202;49.138;10.090;2023-07-31T04:31:06;14.40;99.90
10314;DHT22;5202;49.138;10.090;2023-07-31T04:33:37;14.50;99.90
10314;DHT22;5202;49.138;10.090;2023-07-31T04:36:05;14.60;99.90
10314;DHT22;5202;49.138;10.090;2023-07-31T04:38:34;14.70;99.90
10314;DHT22;5202;49.138;10.090;2023-07-31T04:41:02;14.70;99.90
10314;DHT22;5202;49.138;10.090;2023-07-31T04:43:32;14.70;99.90
10314;DHT22;5202;49.138;10.090;2023-07-31T04:46:01;14.70;99.90
10314;DHT22;5202;49.138;10.090;2023-07-31T04:48:29;14.80;99.90
10314;DHT22;5202;49.138;10.090;2023-07-31T04:50:59;14.80;99.90
10314;DHT22;5202;49.138;10.090;2023-07-31T04:53:27;14.80;99.90
10314;DHT22;5202;49.138;10.090;2023-07-31T04:55:56;14.80;99.90
10314;DHT22;5202;49.138;10.090;2023-07-31T04:58:24;14.80;99.90
10314;DHT22;5202;49.138;10.090;2023-07-31T05:00:53;14.80;99.90
10314;DHT22;5202;49.138;10.090;2023-07-31T05:03:21;14.90;99.90
10314;DHT22;5202;49.138;10.090;2023-07-31T05:05:50;14.90;99.90
10314;DHT22;5202;49.138;10.090;2023-07-31T05:08:19;14.90;99.90
10314;DHT22;5202;49.138;10.090;2023-07-31T05:10:48;14.90;99.90
10314;DHT22;5202;49.138;10.090;2023-07-31T05:13:16;15.00;99.90
10314;DHT22;5202;49.138;10.090;2023-07-31T05:15:45;15.00;99.90
10314;DHT22;5202;49.138;10.090;2023-07-31T05:18:13;15.10;99.90
10314;DHT22;5202;49.138;10.090;2023-07-31T05:20:41;15.10;99.90
10314;DHT22;5202;49.138;10.090;2023-07-31T05:23:10;15.10;99.90
10314;DHT22;5202;49.138;10.090;2023-07-31T05:26:06;15.10;99.90
10314;DHT22;5202;49.138;10.090;2023-07-31T05:28:36;15.10;99.90
10314;DHT22;5202;49.138;10.090;2023-07-31T05:31:05;15.20;99.90
10314;DHT22;5202;49.138;10.090;2023-07-31T05:33:34;15.20;99.90
10314;DHT22;5202;49.138;10.090;2023-07-31T05:36:02;15.30;99.90
10314;DHT22;5202;49.138;10.090;2023-07-31T05:38:31;15.30;99.90
10314;DHT22;5202;49.138;10.090;2023-07-31T05:40:59;15.30;99.90
10314;DHT22;5202;49.138;10.090;2023-07-31T05:43:29;15.40;99.90
10314;DHT22;5202;49.138;10.090;2023-07-31T05:45:57;15.40;99.90
10314;DHT22;5202;49.138;10.090;2023-07-31T05:48:25;15.40;99.90
10314;DHT22;5202;49.138;10.090;2023-07-31T05:50:54;15.40;99.90
10314;DHT22;5202;49.138;10.090;2023-07-31T05:53:22;15.40;99.90
10314;DHT22;5202;49.138;10.090;2023-07-31T05:55:51;15.40;99.90
10314;DHT22;5202;49.138;10.090;2023-07-31T05:58:19;15.40;99.90
10314;DHT22;5202;49.138;10.090;2023-07-31T06:00:49;15.40;99.90
10314;DHT22;5202;49.138;10.090;2023-07-31T06:03:18;15.40;99.90
10314;DHT22;5202;49.138;10.090;2023-07-31T06:05:56;15.40;99.90
10314;DHT22;5202;49.138;10.090;2023-07-31T06:08:25;15.40;99.90
10314;DHT22;5202;49.138;10.090;2023-07-31T06:10:54;15.30;99.90
10314;DHT22;5202;49.138;10.090;2023-07-31T06:13:22;15.30;99.90
10314;DHT22;5202;49.138;10.090;2023-07-31T06:15:52;15.30;99.90
10314;DHT22;5202;49.138;10.090;2023-07-31T06:18:20;15.30;99.90
10314;DHT22;5202;49.138;10.090;2023-07-31T06:20:50;15.30;99.90
10314;DHT22;5202;49.138;10.090;2023-07-31T06:23:20;15.30;99.90
10314;DHT22;5202;49.138;10.090;2023-07-31T06:25:49;15.40;99.90
10314;DHT22;5202;49.138;10.090;2023-07-31T06:28:17;15.40;99.90
10314;DHT22;5202;49.138;10.090;2023-07-31T06:30:46;15.40;99.90
10314;DHT22;5202;49.138;10.090;2023-07-31T06:33:15;15.60;99.90
10314;DHT22;5202;49.138;10.090;2023-07-31T06:35:44;15.50;99.90
10314;DHT22;5202;49.138;10.090;2023-07-31T06:38:12;15.60;99.90
10314;DHT22;5202;49.138;10.090;2023-07-31T06:40:41;15.60;99.90
10314;DHT22;5202;49.138;10.090;2023-07-31T06:43:09;15.70;99.90
10314;DHT22;5202;49.138;10.090;2023-07-31T06:45:38;15.70;99.90
10314;DHT22;5202;49.138;10.090;2023-07-31T06:48:06;15.80;99.90
10314;DHT22;5202;49.138;10.090;2023-07-31T06:50:36;15.80;99.90
10314;DHT22;5202;49.138;10.090;2023-07-31T06:53:05;15.90;99.90
10314;DHT22;5202;49.138;10.090;2023-07-31T06:55:33;16.00;99.90
10314;DHT22;5202;49.138;10.090;2023-07-31T06:58:02;16.10;99.90
10314;DHT22;5202;49.138;10.090;2023-07-31T07:00:31;16.20;99.90
10314;DHT22;5202;49.138;10.090;2023-07-31T07:03:00;16.30;99.90
10314;DHT22;5202;49.138;10.090;2023-07-31T07:05:28;16.40;99.90
10314;DHT22;5202;49.138;10.090;2023-07-31T07:07:58;16.60;99.90
10314;DHT22;5202;49.138;10.090;2023-07-31T07:10:27;16.60;99.90
10314;DHT22;5202;49.138;10.090;2023-07-31T07:12:56;16.70;99.90
10314;DHT22;5202;49.138;10.090;2023-07-31T07:15:24;16.80;99.90
10314;DHT22;5202;49.138;10.090;2023-07-31T07:17:52;16.80;99.90
10314;DHT22;5202;49.138;10.090;2023-07-31T07:20:21;16.90;99.90
10314;DHT22;5202;49.138;10.090;2023-07-31T07:22:50;16.90;99.90
10314;DHT22;5202;49.138;10.090;2023-07-31T07:25:20;16.90;99.90
10314;DHT22;5202;49.138;10.090;2023-07-31T07:27:48;17.00;99.90
10314;DHT22;5202;49.138;10.090;2023-07-31T07:30:16;17.00;99.90
10314;DHT22;5202;49.138;10.090;2023-07-31T07:32:45;17.00;99.90
10314;DHT22;5202;49.138;10.090;2023-07-31T07:35:16;17.00;99.90
10314;DHT22;5202;49.138;10.090;2023-07-31T07:37:44;17.00;99.90
10314;DHT22;5202;49.138;10.090;2023-07-31T07:40:12;17.10;99.90
10314;DHT22;5202;49.138;10.090;2023-07-31T07:42:43;17.10;99.90
10314;DHT22;5202;49.138;10.090;2023-07-31T07:45:11;17.10;99.90
10314;DHT22;5202;49.138;10.090;2023-07-31T07:47:41;17.10;99.70
10314;DHT22;5202;49.138;10.090;2023-07-31T07:50:10;17.10;99.80
10314;DHT22;5202;49.138;10.090;2023-07-31T07:52:38;17.20;99.90
10314;DHT22;5202;49.138;10.090;2023-07-31T07:55:07;17.30;99.40
10314;DHT22;5202;49.138;10.090;2023-07-31T07:57:36;17.40;99.70
10314;DHT22;5202;49.138;10.090;2023-07-31T08:00:07;17.40;99.30
10314;DHT22;5202;49.138;10.090;2023-07-31T08:02:42;17.40;99.60
10314;DHT22;5202;49.138;10.090;2023-07-31T08:05:10;17.50;99.70
10314;DHT22;5202;49.138;10.090;2023-07-31T08:07:38;17.70;99.80
10314;DHT22;5202;49.138;10.090;2023-07-31T08:10:07;17.70;99.30
10314;DHT22;5202;49.138;10.090;2023-07-31T08:12:37;17.70;99.10
10314;DHT22;5202;49.138;10.090;2023-07-31T08:15:07;17.80;98.90
10314;DHT22;5202;49.138;10.090;2023-07-31T08:17:36;17.90;99.00
10314;DHT22;5202;49.138;10.090;2023-07-31T08:20:06;17.90;98.30
10314;DHT22;5202;49.138;10.090;2023-07-31T08:22:36;18.00;98.20
10314;DHT22;5202;49.138;10.090;2023-07-31T08:25:05;18.20;99.00
10314;DHT22;5202;49.138;10.090;2023-07-31T08:27:34;18.30;98.40
10314;DHT22;5202;49.138;10.090;2023-07-31T08:30:03;18.60;98.10
10314;DHT22;5202;49.138;10.090;2023-07-31T08:32:34;18.70;97.10
10314;DHT22;5202;49.138;10.090;2023-07-31T08:35:02;18.60;97.50
10314;DHT22;5202;49.138;10.090;2023-07-31T08:37:31;18.70;97.80
10314;DHT22;5202;49.138;10.090;2023-07-31T08:40:00;18.80;98.00
10314;DHT22;5202;49.138;10.090;2023-07-31T08:42:28;18.90;97.40
10314;DHT22;5202;49.138;10.090;2023-07-31T08:44:58;19.00;97.40
10314;DHT22;5202;49.138;10.090;2023-07-31T08:47:27;19.10;96.40
10314;DHT22;5202;49.138;10.090;2023-07-31T08:49:57;19.10;96.10
10314;DHT22;5202;49.138;10.090;2023-07-31T08:52:27;19.40;96.50
10314;DHT22;5202;49.138;10.090;2023-07-31T08:54:55;19.60;95.30
10314;DHT22;5202;49.138;10.090;2023-07-31T08:57:24;19.70;94.70
10314;DHT22;5202;49.138;10.090;2023-07-31T08:59:53;19.70;95.20
10314;DHT22;5202;49.138;10.090;2023-07-31T09:02:21;19.90;95.00
10314;DHT22;5202;49.138;10.090;2023-07-31T09:04:51;19.90;94.50
10314;DHT22;5202;49.138;10.090;2023-07-31T09:07:21;19.90;94.60
10314;DHT22;5202;49.138;10.090;2023-07-31T09:09:50;20.00;93.50
10314;DHT22;5202;49.138;10.090;2023-07-31T09:12:19;19.90;93.60
10314;DHT22;5202;49.138;10.090;2023-07-31T09:14:48;20.00;93.90
10314;DHT22;5202;49.138;10.090;2023-07-31T09:17:16;20.10;93.60
10314;DHT22;5202;49.138;10.090;2023-07-31T09:19:57;20.10;93.70
10314;DHT22;5202;49.138;10.090;2023-07-31T09:22:34;20.10;93.50
10314;DHT22;5202;49.138;10.090;2023-07-31T09:25:14;20.20;93.60
10314;DHT22;5202;49.138;10.090;2023-07-31T09:27:48;20.20;93.10
10314;DHT22;5202;49.138;10.090;2023-07-31T09:30:18;20.30;92.70
10314;DHT22;5202;49.138;10.090;2023-07-31T09:32:49;20.30;92.70
10314;DHT22;5202;49.138;10.090;2023-07-31T09:35:27;20.30;92.80
10314;DHT22;5202;49.138;10.090;2023-07-31T09:37:58;20.20;93.20
10314;DHT22;5202;49.138;10.090;2023-07-31T09:40:28;20.30;93.00
10314;DHT22;5202;49.138;10.090;2023-07-31T09:42:59;20.30;92.70
10314;DHT22;5202;49.138;10.090;2023-07-31T09:45:29;20.40;92.60
10314;DHT22;5202;49.138;10.090;2023-07-31T09:48:09;20.40;92.20
10314;DHT22;5202;49.138;10.090;2023-07-31T09:50:39;20.50;92.30
10314;DHT22;5202;49.138;10.090;2023-07-31T09:53:10;20.50;91.80
10314;DHT22;5202;49.138;10.090;2023-07-31T09:55:40;20.40;92.20
10314;DHT22;5202;49.138;10.090;2023-07-31T09:58:11;20.40;91.70
10314;DHT22;5202;49.138;10.090;2023-07-31T10:00:40;20.40;92.00
10314;DHT22;5202;49.138;10.090;2023-07-31T10:03:10;20.40;91.70
10314;DHT22;5202;49.138;10.090;2023-07-31T10:05:50;20.20;91.90
10314;DHT22;5202;49.138;10.090;2023-07-31T10:08:23;20.10;92.00
10314;DHT22;5202;49.138;10.090;2023-07-31T10:10:59;20.10;92.40
10314;DHT22;5202;49.138;10.090;2023-07-31T10:13:31;20.20;91.90
10314;DHT22;5202;49.138;10.090;2023-07-31T10:16:00;20.40;91.90
10314;DHT22;5202;49.138;10.090;2023-07-31T10:18:28;20.40;90.90
10314;DHT22;5202;49.138;10.090;2023-07-31T10:20:57;20.40;90.90
10314;DHT22;5202;49.138;10.090;2023-07-31T10:23:27;20.30;91.00
10314;DHT22;5202;49.138;10.090;2023-07-31T10:25:57;20.40;90.80
10314;DHT22;5202;49.138;10.090;2023-07-31T10:28:27;20.50;91.50
10314;DHT22;5202;49.138;10.090;2023-07-31T10:30:57;20.60;90.80
10314;DHT22;5202;49.138;10.090;2023-07-31T10:33:26;20.40;91.10
10314;DHT22;5202;49.138;10.090;2023-07-31T10:36:12;20.60;91.50
10314;DHT22;5202;49.138;10.090;2023-07-31T10:38:45;20.50;90.90
10314;DHT22;5202;49.138;10.090;2023-07-31T10:41:14;20.70;91.40
10314;DHT22;5202;49.138;10.090;2023-07-31T10:43:46;20.80;91.00
10314;DHT22;5202;49.138;10.090;2023-07-31T10:46:15;20.90;91.10
10314;DHT22;5202;49.138;10.090;2023-07-31T10:48:58;21.00;91.00
10314;DHT22;5202;49.138;10.090;2023-07-31T10:51:32;21.00;90.10
10314;DHT22;5202;49.138;10.090;2023-07-31T10:54:13;20.80;90.10
10314;DHT22;5202;49.138;10.090;2023-07-31T10:56:44;20.70;89.90
10314;DHT22;5202;49.138;10.090;2023-07-31T10:59:13;20.50;90.60
10314;DHT22;5202;49.138;10.090;2023-07-31T11:01:50;20.60;90.70
10314;DHT22;5202;49.138;10.090;2023-07-31T11:04:22;20.70;90.80
10314;DHT22;5202;49.138;10.090;2023-07-31T11:06:58;20.70;91.00
10314;DHT22;5202;49.138;10.090;2023-07-31T11:09:33;20.60;90.10
10314;DHT22;5202;49.138;10.090;2023-07-31T11:12:01;20.40;90.50
10314;DHT22;5202;49.138;10.090;2023-07-31T11:14:29;20.40;90.30
10314;DHT22;5202;49.138;10.090;2023-07-31T11:16:58;20.40;90.60
10314;DHT22;5202;49.138;10.090;2023-07-31T11:19:26;20.40;90.70
10314;DHT22;5202;49.138;10.090;2023-07-31T11:21:55;20.40;90.10
10314;DHT22;5202;49.138;10.090;2023-07-31T11:24:24;20.40;90.20
10314;DHT22;5202;49.138;10.090;2023-07-31T11:26:54;20.50;89.20
10314;DHT22;5202;49.138;10.090;2023-07-31T11:29:51;20.40;90.10
10314;DHT22;5202;49.138;10.090;2023-07-31T11:32:19;20.60;90.50
10314;DHT22;5202;49.138;10.090;2023-07-31T11:34:51;20.60;90.30
10314;DHT22;5202;49.138;10.090;2023-07-31T11:37:20;20.70;89.70
10314;DHT22;5202;49.138;10.090;2023-07-31T11:39:59;20.60;90.00
10314;DHT22;5202;49.138;10.090;2023-07-31T11:42:29;20.60;90.50
10314;DHT22;5202;49.138;10.090;2023-07-31T11:44:57;20.60;90.40
10314;DHT22;5202;49.138;10.090;2023-07-31T11:47:26;20.70;90.30
10314;DHT22;5202;49.138;10.090;2023-07-31T11:49:55;20.80;90.60
10314;DHT22;5202;49.138;10.090;2023-07-31T11:52:23;20.80;90.40
10314;DHT22;5202;49.138;10.090;2023-07-31T11:54:52;20.90;90.40
10314;DHT22;5202;49.138;10.090;2023-07-31T11:57:21;20.90;90.00
10314;DHT22;5202;49.138;10.090;2023-07-31T11:59:51;20.90;89.80
10314;DHT22;5202;49.138;10.090;2023-07-31T12:02:20;21.00;90.10
10314;DHT22;5202;49.138;10.090;2023-07-31T12:04:49;20.90;90.10
10314;DHT22;5202;49.138;10.090;2023-07-31T12:07:19;20.90;90.90
10314;DHT22;5202;49.138;10.090;2023-07-31T12:09:52;20.90;90.60
10314;DHT22;5202;49.138;10.090;2023-07-31T12:12:21;21.10;90.10
10314;DHT22;5202;49.138;10.090;2023-07-31T12:14:51;21.10;90.10
10314;DHT22;5202;49.138;10.090;2023-07-31T12:17:19;21.20;90.20
10314;DHT22;5202;49.138;10.090;2023-07-31T12:19:48;21.10;90.20
10314;DHT22;5202;49.138;10.090;2023-07-31T12:22:17;21.10;90.20
10314;DHT22;5202;49.138;10.090;2023-07-31T12:24:45;21.00;90.10
10314;DHT22;5202;49.138;10.090;2023-07-31T12:27:14;21.10;90.20
10314;DHT22;5202;49.138;10.090;2023-07-31T12:29:45;21.10;89.40
10314;DHT22;5202;49.138;10.090;2023-07-31T12:32:24;21.10;90.00
10314;DHT22;5202;49.138;10.090;2023-07-31T12:34:59;20.90;90.40
10314;DHT22;5202;49.138;10.090;2023-07-31T12:37:29;20.90;90.40
10314;DHT22;5202;49.138;10.090;2023-07-31T12:39:59;21.10;90.30
10314;DHT22;5202;49.138;10.090;2023-07-31T12:42:34;21.30;90.70
10314;DHT22;5202;49.138;10.090;2023-07-31T12:45:03;21.60;90.00
10314;DHT22;5202;49.138;10.090;2023-07-31T12:47:34;21.70;89.40
10314;DHT22;5202;49.138;10.090;2023-07-31T12:50:02;21.80;88.60
10314;DHT22;5202;49.138;10.090;2023-07-31T12:52:31;21.70;88.40
10314;DHT22;5202;49.138;10.090;2023-07-31T12:55:00;21.80;89.00
10314;DHT22;5202;49.138;10.090;2023-07-31T12:57:28;21.80;88.60
10314;DHT22;5202;49.138;10.090;2023-07-31T12:59:58;21.90;89.00
10314;DHT22;5202;49.138;10.090;2023-07-31T13:02:30;21.90;88.70
10314;DHT22;5202;49.138;10.090;2023-07-31T13:05:00;21.90;87.50
10314;DHT22;5202;49.138;10.090;2023-07-31T13:07:28;21.90;88.10
10314;DHT22;5202;49.138;10.090;2023-07-31T13:09:56;22.10;88.50
10314;DHT22;5202;49.138;10.090;2023-07-31T13:12:25;22.20;87.80
10314;DHT22;5202;49.138;10.090;2023-07-31T13:14:53;22.50;88.40
10314;DHT22;5202;49.138;10.090;2023-07-31T13:17:22;22.70;87.20
10314;DHT22;5202;49.138;10.090;2023-07-31T13:19:49;22.50;85.60
10314;DHT22;5202;49.138;10.090;2023-07-31T13:22:19;22.40;87.00
10314;DHT22;5202;49.138;10.090;2023-07-31T13:24:47;22.30;86.20
10314;DHT22;5202;49.138;10.090;2023-07-31T13:27:15;22.40;85.70
10314;DHT22;5202;49.138;10.090;2023-07-31T13:29:45;22.30;85.10
10314;DHT22;5202;49.138;10.090;2023-07-31T13:32:14;22.10;85.80
10314;DHT22;5202;49.138;10.090;2023-07-31T13:34:43;21.90;86.50
10314;DHT22;5202;49.138;10.090;2023-07-31T13:37:11;21.80;87.10
10314;DHT22;5202;49.138;10.090;2023-07-31T13:39:42;21.80;87.90
10314;DHT22;5202;49.138;10.090;2023-07-31T13:42:11;21.80;87.30
10314;DHT22;5202;49.138;10.090;2023-07-31T13:44:40;21.80;87.60
10314;DHT22;5202;49.138;10.090;2023-07-31T13:47:09;21.80;88.10
10314;DHT22;5202;49.138;10.090;2023-07-31T13:49:38;21.80;87.90
10314;DHT22;5202;49.138;10.090;2023-07-31T13:52:07;21.80;88.40
10314;DHT22;5202;49.138;10.090;2023-07-31T13:54:35;21.80;88.20
10314;DHT22;5202;49.138;10.090;2023-07-31T13:57:05;21.60;87.20
10314;DHT22;5202;49.138;10.090;2023-07-31T13:59:34;21.60;87.60
10314;DHT22;5202;49.138;10.090;2023-07-31T14:02:03;21.60;88.40
10314;DHT22;5202;49.138;10.090;2023-07-31T14:04:31;21.60;89.30
10314;DHT22;5202;49.138;10.090;2023-07-31T14:07:04;21.50;87.60
10314;DHT22;5202;49.138;10.090;2023-07-31T14:09:32;21.50;87.80
10314;DHT22;5202;49.138;10.090;2023-07-31T14:12:00;21.40;88.20
10314;DHT22;5202;49.138;10.090;2023-07-31T14:14:30;21.50;88.60
10314;DHT22;5202;49.138;10.090;2023-07-31T14:17:01;21.60;88.40
10314;DHT22;5202;49.138;10.090;2023-07-31T14:19:30;21.60;88.70
10314;DHT22;5202;49.138;10.090;2023-07-31T14:21:59;21.70;88.20
10314;DHT22;5202;49.138;10.090;2023-07-31T14:24:37;21.70;88.20
10314;DHT22;5202;49.138;10.090;2023-07-31T14:27:06;21.70;88.70
10314;DHT22;5202;49.138;10.090;2023-07-31T14:29:36;21.70;89.10
10314;DHT22;5202;49.138;10.090;2023-07-31T14:32:05;21.70;89.80
10314;DHT22;5202;49.138;10.090;2023-07-31T14:34:34;21.70;90.00
10314;DHT22;5202;49.138;10.090;2023-07-31T14:37:03;21.80;89.80
10314;DHT22;5202;49.138;10.090;2023-07-31T14:39:32;21.90;90.00
10314;DHT22;5202;49.138;10.090;2023-07-31T14:42:01;21.90;88.40
10314;DHT22;5202;49.138;10.090;2023-07-31T14:44:29;21.90;88.20
10314;DHT22;5202;49.138;10.090;2023-07-31T14:46:59;21.90;89.00
10314;DHT22;5202;49.138;10.090;2023-07-31T14:49:27;21.90;88.40
10314;DHT22;5202;49.138;10.090;2023-07-31T14:51:56;22.00;89.40
10314;DHT22;5202;49.138;10.090;2023-07-31T14:54:24;22.00;89.00
10314;DHT22;5202;49.138;10.090;2023-07-31T14:56:52;21.90;88.60
10314;DHT22;5202;49.138;10.090;2023-07-31T14:59:21;21.90;89.90
10314;DHT22;5202;49.138;10.090;2023-07-31T15:01:49;22.00;89.20
10314;DHT22;5202;49.138;10.090;2023-07-31T15:04:19;21.90;89.10
10314;DHT22;5202;49.138;10.090;2023-07-31T15:06:49;21.80;89.70
10314;DHT22;5202;49.138;10.090;2023-07-31T15:09:18;21.70;89.50
10314;DHT22;5202;49.138;10.090;2023-07-31T15:11:47;21.70;90.00
10314;DHT22;5202;49.138;10.090;2023-07-31T15:14:16;21.60;89.50
10314;DHT22;5202;49.138;10.090;2023-07-31T15:16:44;21.50;89.80
10314;DHT22;5202;49.138;10.090;2023-07-31T15:19:12;21.60;90.10
10314;DHT22;5202;49.138;10.090;2023-07-31T15:21:43;21.60;90.10
10314;DHT22;5202;49.138;10.090;2023-07-31T15:24:11;21.60;89.80
10314;DHT22;5202;49.138;10.090;2023-07-31T15:26:40;21.70;90.40
10314;DHT22;5202;49.138;10.090;2023-07-31T15:29:09;21.70;90.20
10314;DHT22;5202;49.138;10.090;2023-07-31T15:31:42;21.70;90.30
10314;DHT22;5202;49.138;10.090;2023-07-31T15:34:11;21.80;90.50
10314;DHT22;5202;49.138;10.090;2023-07-31T15:36:40;21.90;90.10
10314;DHT22;5202;49.138;10.090;2023-07-31T15:39:09;21.90;89.50
10314;DHT22;5202;49.138;10.090;2023-07-31T15:41:38;22.00;88.50
10314;DHT22;5202;49.138;10.090;2023-07-31T15:44:07;22.00;89.40
10314;DHT22;5202;49.138;10.090;2023-07-31T15:46:36;21.90;87.00